sensor_id;sensor_type;location;lat;lon;timestamp;P1;durP1;ratioP1;P2;durP2;ratioP2
64459;SDS011;50828;53.756;21.140;2022-12-29T00:00:17;22.50;;;12.60;;
64459;SDS011;50828;53.756;21.140;2022-12-29T00:05:25;23.30;;;13.30;;
64459;SDS011;50828;53.756;21.140;2022-12-29T00:10:34;22.40;;;13.50;;
64459;SDS011;50828;53.756;21.140;2022-12-29T00:15:42;19.80;;;12.50;;
64459;SDS011;50828;53.756;21.140;2022-12-29T00:20:50;23.70;;;14.60;;
64459;SDS011;50828;53.756;21.140;2022-12-29T00:26:21;24.30;;;14.30;;
64459;SDS011;50828;53.756;21.140;2022-12-29T00:31:46;22.90;;;14.50;;
64459;SDS011;50828;53.756;21.140;2022-12-29T00:37:12;25.70;;;15.60;;
64459;SDS011;50828;53.756;21.140;2022-12-29T00:42:21;23.30;;;14.20;;
64459;SDS011;50828;53.756;21.140;2022-12-29T00:47:48;26.80;;;15.90;;
64459;SDS011;50828;53.756;21.140;2022-12-29T00:52:56;23.30;;;14.10;;
64459;SDS011;50828;53.756;21.140;2022-12-29T00:58:04;26.80;;;15.60;;
64459;SDS011;50828;53.756;21.140;2022-12-29T01:03:12;26.10;;;15.30;;
64459;SDS011;50828;53.756;21.140;2022-12-29T01:08:20;29.30;;;16.10;;
64459;SDS011;50828;53.756;21.140;2022-12-29T01:13:28;27.30;;;16.30;;
64459;SDS011;50828;53.756;21.140;2022-12-29T01:18:36;22.90;;;15.40;;
64459;SDS011;50828;53.756;21.140;2022-12-29T01:23:44;27.20;;;15.30;;
64459;SDS011;50828;53.756;21.140;2022-12-29T01:28:53;28.70;;;15.50;;
64459;SDS011;50828;53.756;21.140;2022-12-29T01:34:01;31.00;;;15.60;;
64459;SDS011;50828;53.756;21.140;2022-12-29T01:39:10;28.40;;;16.00;;
64459;SDS011;50828;53.756;21.140;2022-12-29T01:49:58;26.60;;;14.70;;
64459;SDS011;50828;53.756;21.140;2022-12-29T02:00:17;27.50;;;12.70;;
64459;SDS011;50828;53.756;21.140;2022-12-29T02:05:27;22.80;;;12.30;;
64459;SDS011;50828;53.756;21.140;2022-12-29T02:10:40;24.40;;;12.90;;
64459;SDS011;50828;53.756;21.140;2022-12-29T02:15:52;25.10;;;12.30;;
64459;SDS011;50828;53.756;21.140;2022-12-29T02:32:30;20.60;;;12.30;;
64459;SDS011;50828;53.756;21.140;2022-12-29T02:37:49;20.30;;;11.70;;
64459;SDS011;50828;53.756;21.140;2022-12-29T02:43:08;25.10;;;13.90;;
64459;SDS011;50828;53.756;21.140;2022-12-29T02:48:24;24.90;;;12.50;;
64459;SDS011;50828;53.756;21.140;2022-12-29T02:53:35;23.60;;;12.80;;
64459;SDS011;50828;53.756;21.140;2022-12-29T02:59:02;20.80;;;12.80;;
64459;SDS011;50828;53.756;21.140;2022-12-29T03:04:16;24.30;;;12.50;;
64459;SDS011;50828;53.756;21.140;2022-12-29T03:09:36;22.00;;;12.10;;
64459;SDS011;50828;53.756;21.140;2022-12-29T03:14:55;20.70;;;11.10;;
64459;SDS011;50828;53.756;21.140;2022-12-29T03:20:26;25.00;;;13.20;;
64459;SDS011;50828;53.756;21.140;2022-12-29T03:25:44;22.90;;;12.40;;
64459;SDS011;50828;53.756;21.140;2022-12-29T03:30:58;30.20;;;13.10;;
64459;SDS011;50828;53.756;21.140;2022-12-29T03:36:10;22.10;;;12.00;;
64459;SDS011;50828;53.756;21.140;2022-12-29T03:41:24;19.80;;;11.50;;
64459;SDS011;50828;53.756;21.140;2022-12-29T03:46:37;24.10;;;12.00;;
64459;SDS011;50828;53.756;21.140;2022-12-29T03:51:46;25.90;;;12.00;;
64459;SDS011;50828;53.756;21.140;2022-12-29T03:56:55;20.10;;;12.10;;
64459;SDS011;50828;53.756;21.140;2022-12-29T04:02:13;18.60;;;11.10;;
64459;SDS011;50828;53.756;21.140;2022-12-29T04:07:22;18.80;;;11.40;;
64459;SDS011;50828;53.756;21.140;2022-12-29T04:12:31;21.00;;;11.80;;
64459;SDS011;50828;53.756;21.140;2022-12-29T04:17:39;21.90;;;11.10;;
64459;SDS011;50828;53.756;21.140;2022-12-29T04:22:48;19.00;;;11.20;;
64459;SDS011;50828;53.756;21.140;2022-12-29T04:28:02;23.10;;;12.00;;
64459;SDS011;50828;53.756;21.140;2022-12-29T04:33:22;23.80;;;11.70;;
64459;SDS011;50828;53.756;21.140;2022-12-29T04:38:31;18.70;;;10.70;;
64459;SDS011;50828;53.756;21.140;2022-12-29T04:43:40;17.90;;;11.30;;
64459;SDS011;50828;53.756;21.140;2022-12-29T04:49:07;22.40;;;12.30;;
64459;SDS011;50828;53.756;21.140;2022-12-29T04:59:44;20.90;;;12.50;;
64459;SDS011;50828;53.756;21.140;2022-12-29T05:04:55;20.80;;;11.60;;
64459;SDS011;50828;53.756;21.140;2022-12-29T05:10:04;23.60;;;13.40;;
64459;SDS011;50828;53.756;21.140;2022-12-29T05:15:13;26.50;;;13.50;;
64459;SDS011;50828;53.756;21.140;2022-12-29T05:20:22;24.10;;;13.30;;
64459;SDS011;50828;53.756;21.140;2022-12-29T05:25:30;21.80;;;12.90;;
64459;SDS011;50828;53.756;21.140;2022-12-29T05:30:56;25.50;;;14.20;;
64459;SDS011;50828;53.756;21.140;2022-12-29T05:36:06;25.20;;;15.50;;
64459;SDS011;50828;53.756;21.140;2022-12-29T05:41:19;26.50;;;14.90;;
64459;SDS011;50828;53.756;21.140;2022-12-29T05:47:03;24.50;;;13.40;;
64459;SDS011;50828;53.756;21.140;2022-12-29T05:52:21;24.60;;;13.20;;
64459;SDS011;50828;53.756;21.140;2022-12-29T05:57:30;19.70;;;12.80;;
64459;SDS011;50828;53.756;21.140;2022-12-29T06:02:50;23.10;;;12.30;;
64459;SDS011;50828;53.756;21.140;2022-12-29T06:07:58;21.20;;;11.60;;
64459;SDS011;50828;53.756;21.140;2022-12-29T06:13:07;19.30;;;11.00;;
64459;SDS011;50828;53.756;21.140;2022-12-29T06:23:26;21.00;;;11.80;;
64459;SDS011;50828;53.756;21.140;2022-12-29T06:28:35;22.00;;;11.30;;
64459;SDS011;50828;53.756;21.140;2022-12-29T06:33:43;20.30;;;11.40;;
64459;SDS011;50828;53.756;21.140;2022-12-29T06:38:54;26.30;;;11.40;;
64459;SDS011;50828;53.756;21.140;2022-12-29T06:44:02;19.50;;;10.60;;
64459;SDS011;50828;53.756;21.140;2022-12-29T06:49:26;17.50;;;10.90;;
64459;SDS011;50828;53.756;21.140;2022-12-29T06:54:34;19.40;;;10.70;;
64459;SDS011;50828;53.756;21.140;2022-12-29T06:59:42;17.00;;;10.60;;
64459;SDS011;50828;53.756;21.140;2022-12-29T07:04:49;17.00;;;10.10;;
64459;SDS011;50828;53.756;21.140;2022-12-29T07:09:57;18.50;;;9.40;;
64459;SDS011;50828;53.756;21.140;2022-12-29T07:15:06;18.80;;;10.40;;
64459;SDS011;50828;53.756;21.140;2022-12-29T07:20:17;18.40;;;9.30;;
64459;SDS011;50828;53.756;21.140;2022-12-29T07:25:30;16.40;;;9.40;;
64459;SDS011;50828;53.756;21.140;2022-12-29T07:30:39;16.80;;;8.70;;
64459;SDS011;50828;53.756;21.140;2022-12-29T07:35:47;15.70;;;8.90;;
64459;SDS011;50828;53.756;21.140;2022-12-29T07:40:58;19.20;;;10.50;;
64459;SDS011;50828;53.756;21.140;2022-12-29T07:46:06;13.90;;;9.00;;
64459;SDS011;50828;53.756;21.140;2022-12-29T07:51:35;22.10;;;9.80;;
64459;SDS011;50828;53.756;21.140;2022-12-29T07:56:44;18.00;;;9.00;;
64459;SDS011;50828;53.756;21.140;2022-12-29T08:01:53;15.50;;;9.60;;
64459;SDS011;50828;53.756;21.140;2022-12-29T08:07:01;17.40;;;10.10;;
64459;SDS011;50828;53.756;21.140;2022-12-29T08:12:10;20.10;;;9.30;;
64459;SDS011;50828;53.756;21.140;2022-12-29T08:17:19;20.60;;;9.60;;
64459;SDS011;50828;53.756;21.140;2022-12-29T08:22:27;16.30;;;8.90;;
64459;SDS011;50828;53.756;21.140;2022-12-29T08:27:36;19.60;;;9.40;;
64459;SDS011;50828;53.756;21.140;2022-12-29T08:32:44;17.10;;;9.30;;
64459;SDS011;50828;53.756;21.140;2022-12-29T08:37:53;15.10;;;8.50;;
64459;SDS011;50828;53.756;21.140;2022-12-29T08:43:02;14.60;;;8.50;;
64459;SDS011;50828;53.756;21.140;2022-12-29T08:48:13;14.60;;;8.90;;
64459;SDS011;50828;53.756;21.140;2022-12-29T08:58:30;17.20;;;8.90;;
64459;SDS011;50828;53.756;21.140;2022-12-29T09:03:39;14.60;;;8.10;;
64459;SDS011;50828;53.756;21.140;2022-12-29T09:09:08;16.90;;;8.90;;
64459;SDS011;50828;53.756;21.140;2022-12-29T09:14:16;15.20;;;8.00;;
64459;SDS011;50828;53.756;21.140;2022-12-29T09:19:25;13.90;;;7.90;;
64459;SDS011;50828;53.756;21.140;2022-12-29T09:24:34;14.00;;;7.20;;
64459;SDS011;50828;53.756;21.140;2022-12-29T09:29:42;14.20;;;8.20;;
64459;SDS011;50828;53.756;21.140;2022-12-29T09:34:50;17.60;;;8.60;;
64459;SDS011;50828;53.756;21.140;2022-12-29T09:39:59;13.10;;;7.50;;
64459;SDS011;50828;53.756;21.140;2022-12-29T09:45:10;13.00;;;7.80;;
64459;SDS011;50828;53.756;21.140;2022-12-29T09:50:22;14.30;;;7.60;;
64459;SDS011;50828;53.756;21.140;2022-12-29T09:55:35;13.20;;;7.80;;
64459;SDS011;50828;53.756;21.140;2022-12-29T10:00:48;15.30;;;7.30;;
64459;SDS011;50828;53.756;21.140;2022-12-29T10:06:02;16.90;;;7.30;;
64459;SDS011;50828;53.756;21.140;2022-12-29T10:11:20;12.90;;;6.90;;
64459;SDS011;50828;53.756;21.140;2022-12-29T10:16:42;12.90;;;7.50;;
64459;SDS011;50828;53.756;21.140;2022-12-29T10:21:59;14.10;;;7.70;;
64459;SDS011;50828;53.756;21.140;2022-12-29T10:27:16;14.80;;;7.60;;
64459;SDS011;50828;53.756;21.140;2022-12-29T10:32:29;15.10;;;7.60;;
64459;SDS011;50828;53.756;21.140;2022-12-29T10:37:41;15.70;;;7.40;;
64459;SDS011;50828;53.756;21.140;2022-12-29T10:42:56;11.40;;;6.30;;
64459;SDS011;50828;53.756;21.140;2022-12-29T10:48:25;14.40;;;7.50;;
64459;SDS011;50828;53.756;21.140;2022-12-29T10:53:37;14.00;;;7.10;;
64459;SDS011;50828;53.756;21.140;2022-12-29T10:58:50;14.50;;;7.40;;
64459;SDS011;50828;53.756;21.140;2022-12-29T11:04:02;14.40;;;6.80;;
64459;SDS011;50828;53.756;21.140;2022-12-29T11:09:15;16.50;;;7.80;;
64459;SDS011;50828;53.756;21.140;2022-12-29T11:14:45;12.40;;;6.90;;
64459;SDS011;50828;53.756;21.140;2022-12-29T11:20:18;14.10;;;7.30;;
64459;SDS011;50828;53.756;21.140;2022-12-29T11:25:33;15.20;;;8.30;;
64459;SDS011;50828;53.756;21.140;2022-12-29T11:30:42;18.50;;;8.10;;
64459;SDS011;50828;53.756;21.140;2022-12-29T11:35:50;17.20;;;7.40;;
64459;SDS011;50828;53.756;21.140;2022-12-29T11:41:03;15.00;;;6.90;;
64459;SDS011;50828;53.756;21.140;2022-12-29T11:46:18;14.60;;;7.60;;
64459;SDS011;50828;53.756;21.140;2022-12-29T11:51:29;14.30;;;7.20;;
64459;SDS011;50828;53.756;21.140;2022-12-29T11:56:43;16.50;;;7.30;;
64459;SDS011;50828;53.756;21.140;2022-12-29T12:01:52;13.50;;;6.90;;
64459;SDS011;50828;53.756;21.140;2022-12-29T12:07:02;13.40;;;6.80;;
64459;SDS011;50828;53.756;21.140;2022-12-29T12:12:19;13.60;;;7.80;;
64459;SDS011;50828;53.756;21.140;2022-12-29T12:17:36;14.00;;;7.00;;
64459;SDS011;50828;53.756;21.140;2022-12-29T12:22:53;12.50;;;6.60;;
64459;SDS011;50828;53.756;21.140;2022-12-29T12:28:13;14.90;;;7.80;;
64459;SDS011;50828;53.756;21.140;2022-12-29T12:33:26;16.60;;;8.10;;
64459;SDS011;50828;53.756;21.140;2022-12-29T12:38:40;15.90;;;7.40;;
64459;SDS011;50828;53.756;21.140;2022-12-29T12:44:00;16.90;;;7.10;;
64459;SDS011;50828;53.756;21.140;2022-12-29T12:55:22;18.00;;;6.80;;
64459;SDS011;50828;53.756;21.140;2022-12-29T13:00:47;14.50;;;7.00;;
64459;SDS011;50828;53.756;21.140;2022-12-29T13:06:09;16.30;;;7.00;;
64459;SDS011;50828;53.756;21.140;2022-12-29T13:11:28;16.30;;;8.00;;
64459;SDS011;50828;53.756;21.140;2022-12-29T13:16:49;13.80;;;7.20;;
64459;SDS011;50828;53.756;21.140;2022-12-29T13:22:09;15.30;;;6.90;;
64459;SDS011;50828;53.756;21.140;2022-12-29T13:27:26;17.70;;;7.60;;
64459;SDS011;50828;53.756;21.140;2022-12-29T13:32:45;15.10;;;7.30;;
64459;SDS011;50828;53.756;21.140;2022-12-29T13:38:03;18.30;;;6.70;;
64459;SDS011;50828;53.756;21.140;2022-12-29T13:43:17;15.00;;;7.40;;
64459;SDS011;50828;53.756;21.140;2022-12-29T13:48:28;11.60;;;6.20;;
64459;SDS011;50828;53.756;21.140;2022-12-29T13:53:53;14.30;;;7.40;;
64459;SDS011;50828;53.756;21.140;2022-12-29T13:59:09;14.70;;;7.20;;
64459;SDS011;50828;53.756;21.140;2022-12-29T14:04:25;18.40;;;6.90;;
64459;SDS011;50828;53.756;21.140;2022-12-29T14:09:45;11.40;;;6.80;;
64459;SDS011;50828;53.756;21.140;2022-12-29T14:14:56;13.70;;;7.10;;
64459;SDS011;50828;53.756;21.140;2022-12-29T14:20:21;14.20;;;6.50;;
64459;SDS011;50828;53.756;21.140;2022-12-29T14:31:03;14.70;;;7.10;;
64459;SDS011;50828;53.756;21.140;2022-12-29T14:36:35;14.40;;;6.50;;
64459;SDS011;50828;53.756;21.140;2022-12-29T14:41:44;19.70;;;7.50;;
64459;SDS011;50828;53.756;21.140;2022-12-29T14:46:57;19.50;;;8.70;;
64459;SDS011;50828;53.756;21.140;2022-12-29T14:52:13;14.00;;;7.60;;
64459;SDS011;50828;53.756;21.140;2022-12-29T14:57:31;18.80;;;8.20;;
64459;SDS011;50828;53.756;21.140;2022-12-29T15:02:45;17.90;;;8.10;;
64459;SDS011;50828;53.756;21.140;2022-12-29T15:07:55;16.30;;;7.70;;
64459;SDS011;50828;53.756;21.140;2022-12-29T15:13:09;19.70;;;8.50;;
64459;SDS011;50828;53.756;21.140;2022-12-29T15:18:27;12.50;;;7.80;;
64459;SDS011;50828;53.756;21.140;2022-12-29T15:23:36;16.80;;;8.40;;
64459;SDS011;50828;53.756;21.140;2022-12-29T15:28:45;17.40;;;8.20;;
64459;SDS011;50828;53.756;21.140;2022-12-29T15:33:55;16.20;;;8.80;;
64459;SDS011;50828;53.756;21.140;2022-12-29T15:44:34;21.10;;;9.80;;
64459;SDS011;50828;53.756;21.140;2022-12-29T15:49:45;17.50;;;8.90;;
64459;SDS011;50828;53.756;21.140;2022-12-29T15:54:57;15.70;;;7.90;;
64459;SDS011;50828;53.756;21.140;2022-12-29T16:05:33;18.40;;;9.10;;
64459;SDS011;50828;53.756;21.140;2022-12-29T16:15:49;20.70;;;8.80;;
64459;SDS011;50828;53.756;21.140;2022-12-29T16:21:02;19.50;;;9.10;;
64459;SDS011;50828;53.756;21.140;2022-12-29T16:26:12;17.70;;;8.90;;
64459;SDS011;50828;53.756;21.140;2022-12-29T16:31:25;18.50;;;8.90;;
64459;SDS011;50828;53.756;21.140;2022-12-29T16:36:51;25.20;;;10.20;;
64459;SDS011;50828;53.756;21.140;2022-12-29T16:42:08;17.40;;;8.90;;
64459;SDS011;50828;53.756;21.140;2022-12-29T16:48:08;18.80;;;9.70;;
64459;SDS011;50828;53.756;21.140;2022-12-29T16:53:23;16.50;;;9.10;;
64459;SDS011;50828;53.756;21.140;2022-12-29T16:58:33;20.00;;;9.50;;
64459;SDS011;50828;53.756;21.140;2022-12-29T17:03:41;19.80;;;9.20;;
64459;SDS011;50828;53.756;21.140;2022-12-29T17:08:54;21.60;;;9.40;;
64459;SDS011;50828;53.756;21.140;2022-12-29T17:14:03;20.60;;;9.40;;
64459;SDS011;50828;53.756;21.140;2022-12-29T17:19:20;21.40;;;9.20;;
64459;SDS011;50828;53.756;21.140;2022-12-29T17:24:34;19.10;;;9.30;;
64459;SDS011;50828;53.756;21.140;2022-12-29T17:29:43;17.70;;;9.00;;
64459;SDS011;50828;53.756;21.140;2022-12-29T17:34:51;19.70;;;8.60;;
64459;SDS011;50828;53.756;21.140;2022-12-29T17:39:59;19.60;;;8.50;;
64459;SDS011;50828;53.756;21.140;2022-12-29T17:45:11;17.20;;;9.20;;
64459;SDS011;50828;53.756;21.140;2022-12-29T17:50:22;23.90;;;9.80;;
64459;SDS011;50828;53.756;21.140;2022-12-29T17:55:33;20.40;;;9.60;;
64459;SDS011;50828;53.756;21.140;2022-12-29T18:00:42;19.50;;;9.40;;
64459;SDS011;50828;53.756;21.140;2022-12-29T18:05:50;21.80;;;9.70;;
64459;SDS011;50828;53.756;21.140;2022-12-29T18:10:59;19.70;;;9.30;;
64459;SDS011;50828;53.756;21.140;2022-12-29T18:16:08;16.00;;;8.40;;
64459;SDS011;50828;53.756;21.140;2022-12-29T18:21:18;23.00;;;9.20;;
64459;SDS011;50828;53.756;21.140;2022-12-29T18:26:28;21.70;;;8.00;;
64459;SDS011;50828;53.756;21.140;2022-12-29T18:31:39;18.40;;;8.40;;
64459;SDS011;50828;53.756;21.140;2022-12-29T18:36:47;15.10;;;8.30;;
64459;SDS011;50828;53.756;21.140;2022-12-29T18:41:56;20.40;;;8.20;;
64459;SDS011;50828;53.756;21.140;2022-12-29T18:47:04;16.70;;;7.70;;
64459;SDS011;50828;53.756;21.140;2022-12-29T18:52:14;17.30;;;8.00;;
64459;SDS011;50828;53.756;21.140;2022-12-29T18:57:22;15.40;;;8.60;;
64459;SDS011;50828;53.756;21.140;2022-12-29T19:02:33;18.90;;;8.00;;
64459;SDS011;50828;53.756;21.140;2022-12-29T19:07:42;18.30;;;9.20;;
64459;SDS011;50828;53.756;21.140;2022-12-29T19:12:50;16.40;;;8.70;;
64459;SDS011;50828;53.756;21.140;2022-12-29T19:18:01;17.90;;;8.40;;
64459;SDS011;50828;53.756;21.140;2022-12-29T19:23:31;19.30;;;9.40;;
64459;SDS011;50828;53.756;21.140;2022-12-29T19:28:40;18.00;;;9.40;;
64459;SDS011;50828;53.756;21.140;2022-12-29T19:33:48;15.20;;;8.60;;
64459;SDS011;50828;53.756;21.140;2022-12-29T19:38:57;15.50;;;8.20;;
64459;SDS011;50828;53.756;21.140;2022-12-29T19:44:06;15.60;;;8.30;;
64459;SDS011;50828;53.756;21.140;2022-12-29T19:49:14;18.60;;;8.80;;
64459;SDS011;50828;53.756;21.140;2022-12-29T19:54:23;18.50;;;9.40;;
64459;SDS011;50828;53.756;21.140;2022-12-29T19:59:31;17.50;;;8.20;;
64459;SDS011;50828;53.756;21.140;2022-12-29T20:04:40;20.20;;;8.90;;
64459;SDS011;50828;53.756;21.140;2022-12-29T20:09:49;18.10;;;9.00;;
64459;SDS011;50828;53.756;21.140;2022-12-29T20:14:57;18.10;;;9.40;;
64459;SDS011;50828;53.756;21.140;2022-12-29T20:20:07;17.80;;;9.30;;
64459;SDS011;50828;53.756;21.140;2022-12-29T20:25:17;15.60;;;8.60;;
64459;SDS011;50828;53.756;21.140;2022-12-29T20:30:48;20.80;;;9.40;;
64459;SDS011;50828;53.756;21.140;2022-12-29T20:36:05;17.10;;;8.50;;
64459;SDS011;50828;53.756;21.140;2022-12-29T20:41:15;18.10;;;9.30;;
64459;SDS011;50828;53.756;21.140;2022-12-29T20:46:23;17.80;;;8.20;;
64459;SDS011;50828;53.756;21.140;2022-12-29T20:51:45;20.70;;;8.60;;
64459;SDS011;50828;53.756;21.140;2022-12-29T20:57:10;19.40;;;8.80;;
64459;SDS011;50828;53.756;21.140;2022-12-29T21:02:20;17.90;;;8.90;;
64459;SDS011;50828;53.756;21.140;2022-12-29T21:07:28;16.10;;;8.80;;
64459;SDS011;50828;53.756;21.140;2022-12-29T21:12:36;17.70;;;8.60;;
64459;SDS011;50828;53.756;21.140;2022-12-29T21:17:44;18.80;;;9.70;;
64459;SDS011;50828;53.756;21.140;2022-12-29T21:22:52;18.80;;;8.70;;
64459;SDS011;50828;53.756;21.140;2022-12-29T21:28:01;16.80;;;8.00;;
64459;SDS011;50828;53.756;21.140;2022-12-29T21:33:09;16.70;;;8.50;;
64459;SDS011;50828;53.756;21.140;2022-12-29T21:38:19;18.10;;;8.50;;
64459;SDS011;50828;53.756;21.140;2022-12-29T21:43:27;19.10;;;8.70;;
64459;SDS011;50828;53.756;21.140;2022-12-29T21:48:35;17.70;;;8.50;;
64459;SDS011;50828;53.756;21.140;2022-12-29T21:53:44;20.80;;;9.00;;
64459;SDS011;50828;53.756;21.140;2022-12-29T21:58:52;19.50;;;8.60;;
64459;SDS011;50828;53.756;21.140;2022-12-29T22:04:18;16.20;;;8.40;;
64459;SDS011;50828;53.756;21.140;2022-12-29T22:09:45;16.00;;;9.40;;
64459;SDS011;50828;53.756;21.140;2022-12-29T22:15:12;18.80;;;9.70;;
64459;SDS011;50828;53.756;21.140;2022-12-29T22:20:21;19.70;;;9.80;;
64459;SDS011;50828;53.756;21.140;2022-12-29T22:25:31;20.50;;;10.30;;
64459;SDS011;50828;53.756;21.140;2022-12-29T22:30:40;20.20;;;9.90;;
64459;SDS011;50828;53.756;21.140;2022-12-29T22:35:48;22.30;;;9.40;;
64459;SDS011;50828;53.756;21.140;2022-12-29T22:40:58;20.10;;;9.40;;
64459;SDS011;50828;53.756;21.140;2022-12-29T22:46:05;21.20;;;9.10;;
64459;SDS011;50828;53.756;21.140;2022-12-29T22:51:14;16.20;;;9.00;;
64459;SDS011;50828;53.756;21.140;2022-12-29T22:56:22;20.30;;;8.80;;
64459;SDS011;50828;53.756;21.140;2022-12-29T23:01:30;25.30;;;9.10;;
64459;SDS011;50828;53.756;21.140;2022-12-29T23:06:38;17.80;;;8.50;;
64459;SDS011;50828;53.756;21.140;2022-12-29T23:11:47;19.00;;;9.00;;
64459;SDS011;50828;53.756;21.140;2022-12-29T23:16:56;17.70;;;9.30;;
64459;SDS011;50828;53.756;21.140;2022-12-29T23:22:03;20.80;;;9.20;;
64459;SDS011;50828;53.756;21.140;2022-12-29T23:27:13;19.50;;;8.60;;
64459;SDS011;50828;53.756;21.140;2022-12-29T23:32:21;22.30;;;10.00;;
64459;SDS011;50828;53.756;21.140;2022-12-29T23:37:30;18.70;;;9.10;;
64459;SDS011;50828;53.756;21.140;2022-12-29T23:42:38;21.10;;;9.20;;
64459;SDS011;50828;53.756;21.140;2022-12-29T23:47:46;23.90;;;10.00;;
64459;SDS011;50828;53.756;21.140;2022-12-29T23:52:54;17.90;;;9.60;;
64459;SDS011;50828;53.756;21.140;2022-12-29T23:58:03;20.90;;;10.00;;
